createdAt,value
2022-11-25T00:00:44.743Z,19.37
2022-11-25T00:05:46.782Z,19.39
2022-11-25T00:10:48.711Z,19.39
2022-11-25T00:15:52.135Z,19.40
2022-11-25T00:20:54.144Z,19.38
2022-11-25T00:25:56.145Z,19.37
2022-11-25T00:31:07.132Z,19.38
2022-11-25T00:36:26.797Z,19.38
2022-11-25T00:41:48.463Z,19.39
2022-11-25T00:46:50.522Z,19.38
2022-11-25T00:51:52.726Z,19.37
2022-11-25T00:56:54.791Z,19.37
2022-11-25T01:01:57.190Z,19.38
2022-11-25T01:07:00.320Z,19.40
2022-11-25T01:12:02.384Z,19.40
2022-11-25T01:17:05.941Z,19.37
2022-11-25T01:22:08.932Z,19.38
2022-11-25T01:27:11.014Z,19.39
2022-11-25T01:32:13.037Z,19.39
2022-11-25T01:37:14.990Z,19.38
2022-11-25T01:42:20.220Z,19.37
2022-11-25T01:47:24.585Z,19.35
2022-11-25T01:52:44.856Z,19.35
2022-11-25T01:57:58.946Z,19.36
2022-11-25T02:03:01.294Z,19.38
2022-11-25T02:08:04.923Z,19.39
2022-11-25T02:13:07.020Z,19.36
2022-11-25T02:18:11.758Z,19.36
2022-11-25T02:23:51.620Z,19.36
2022-11-25T02:28:54.939Z,19.37
2022-11-25T02:33:57.045Z,19.38
2022-11-25T02:39:01.847Z,19.37
2022-11-25T02:44:07.863Z,19.35
2022-11-25T02:49:10.559Z,19.36
2022-11-25T02:54:15.835Z,19.37
2022-11-25T02:59:18.099Z,19.38
2022-11-25T03:04:21.281Z,19.38
2022-11-25T03:09:23.216Z,19.36
2022-11-25T03:14:25.265Z,19.34
2022-11-25T03:19:27.368Z,19.38
2022-11-25T03:24:29.668Z,19.37
2022-11-25T03:29:31.854Z,19.37
2022-11-25T03:34:34.382Z,19.37
2022-11-25T03:39:37.569Z,19.35
2022-11-25T03:44:41.196Z,19.37
2022-11-25T03:49:43.874Z,19.38
2022-11-25T03:54:45.971Z,19.38
2022-11-25T03:59:56.398Z,19.37
2022-11-25T04:04:58.852Z,19.35
2022-11-25T04:10:00.953Z,19.36
2022-11-25T04:15:06.983Z,19.37
2022-11-25T04:20:10.132Z,19.38
2022-11-25T04:25:13.494Z,19.37
2022-11-25T04:30:16.051Z,19.37
2022-11-25T04:35:19.500Z,19.37
2022-11-25T04:40:25.963Z,19.38
2022-11-25T04:46:13.184Z,19.38
2022-11-25T04:51:11.133Z,19.38
2022-11-25T04:56:19.449Z,19.34
2022-11-25T05:01:24.460Z,19.37
2022-11-25T05:06:30.731Z,19.36
2022-11-25T05:11:32.753Z,19.37
2022-11-25T05:16:35.543Z,19.37
2022-11-25T05:21:38.571Z,19.35
2022-11-25T05:26:40.875Z,19.38
2022-11-25T05:31:42.979Z,19.38
2022-11-25T05:36:45.333Z,19.38
2022-11-25T05:41:48.010Z,19.37
2022-11-25T05:46:50.534Z,19.35
2022-11-25T05:51:52.707Z,19.30
2022-11-25T05:56:57.340Z,19.38
2022-11-25T06:02:09.028Z,19.38
2022-11-25T06:07:11.260Z,19.38
2022-11-25T06:12:14.932Z,19.37
2022-11-25T06:17:23.255Z,19.36
2022-11-25T06:22:33.612Z,19.36
2022-11-25T06:28:04.372Z,19.38
2022-11-25T06:32:58.673Z,19.37
2022-11-25T06:38:00.941Z,19.35
2022-11-25T06:43:04.575Z,19.35
2022-11-25T06:48:06.756Z,19.36
2022-11-25T06:53:08.901Z,19.36
2022-11-25T06:58:34.230Z,19.36
2022-11-25T07:03:33.039Z,19.38
2022-11-25T07:08:35.105Z,19.38
2022-11-25T07:13:37.243Z,19.35
2022-11-25T07:18:41.291Z,19.35
2022-11-25T07:23:45.351Z,19.36
2022-11-25T07:28:48.805Z,19.38
2022-11-25T07:33:56.138Z,19.32
2022-11-25T07:39:00.263Z,19.35
2022-11-25T07:44:05.221Z,19.36
2022-11-25T07:49:22.345Z,19.37
2022-11-25T07:54:24.710Z,19.36
2022-11-25T07:59:26.891Z,19.37
2022-11-25T08:04:28.976Z,19.37
2022-11-25T08:09:31.013Z,19.34
2022-11-25T08:14:33.040Z,19.37
2022-11-25T08:19:36.144Z,19.37
2022-11-25T08:24:38.424Z,19.38
2022-11-25T08:29:40.439Z,19.38
2022-11-25T08:34:42.865Z,19.36
2022-11-25T08:39:53.499Z,19.36
2022-11-25T08:44:56.798Z,19.38
2022-11-25T08:49:59.417Z,19.38
2022-11-25T08:55:01.452Z,19.38
2022-11-25T09:00:06.283Z,19.36
2022-11-25T09:05:08.750Z,19.36
2022-11-25T09:10:15.993Z,19.37
2022-11-25T09:15:18.073Z,19.34
2022-11-25T09:20:20.157Z,19.37
2022-11-25T09:25:23.144Z,19.37
2022-11-25T09:30:26.059Z,19.38
2022-11-25T09:35:28.159Z,19.38
2022-11-25T09:40:39.885Z,19.37
2022-11-25T09:46:38.332Z,19.36
2022-11-25T09:51:48.828Z,19.38
2022-11-25T09:57:01.223Z,19.38
2022-11-25T10:02:14.849Z,19.38
2022-11-25T10:07:24.709Z,19.38
2022-11-25T10:12:29.687Z,19.37
2022-11-25T10:17:31.625Z,19.40
2022-11-25T10:22:41.608Z,19.39
2022-11-25T10:27:49.552Z,19.41
2022-11-25T10:33:05.469Z,19.42
2022-11-25T10:38:18.795Z,19.45
2022-11-25T10:43:21.408Z,19.45
2022-11-25T10:48:49.706Z,19.43
2022-11-25T10:54:10.255Z,19.43
2022-11-25T10:59:28.483Z,19.43
2022-11-25T11:04:30.663Z,19.45
2022-11-25T11:09:43.375Z,19.45
2022-11-25T11:14:45.444Z,19.46
2022-11-25T11:20:01.695Z,19.45
2022-11-25T11:25:27.787Z,19.44
2022-11-25T11:30:31.971Z,19.46
2022-11-25T11:36:09.275Z,19.47
2022-11-25T11:41:30.419Z,19.46
2022-11-25T11:47:01.340Z,19.48
2022-11-25T11:52:06.351Z,19.51
2022-11-25T11:57:26.945Z,19.49
2022-11-25T12:02:52.236Z,19.47
2022-11-25T12:08:06.222Z,19.47
2022-11-25T12:13:08.043Z,19.48
2022-11-25T12:18:35.088Z,19.49
2022-11-25T12:24:07.098Z,19.49
2022-11-25T12:29:53.985Z,19.49
2022-11-25T12:35:10.472Z,19.48
2022-11-25T12:40:18.365Z,19.48
2022-11-25T12:45:26.178Z,19.49
2022-11-25T12:50:31.250Z,19.50
2022-11-25T12:55:35.192Z,19.52
2022-11-25T13:00:42.110Z,19.51
2022-11-25T13:06:06.707Z,19.49
2022-11-25T13:11:37.015Z,19.49
2022-11-25T13:16:40.944Z,19.50
2022-11-25T13:22:00.914Z,19.52
2022-11-25T13:27:05.352Z,19.53
2022-11-25T13:32:31.414Z,19.51
2022-11-25T13:37:40.297Z,19.51
2022-11-25T13:42:45.781Z,19.52
2022-11-25T13:47:49.414Z,19.53
2022-11-25T13:53:03.169Z,19.54
2022-11-25T13:58:11.274Z,19.56
2022-11-25T14:03:44.987Z,19.53
2022-11-25T14:09:00.418Z,19.54
2022-11-25T14:14:20.676Z,19.54
2022-11-25T14:19:59.341Z,19.53
2022-11-25T14:25:30.526Z,19.53
2022-11-25T14:30:33.101Z,19.56
2022-11-25T14:35:45.265Z,19.57
2022-11-25T14:41:18.696Z,19.55
2022-11-25T14:46:23.520Z,19.55
2022-11-25T14:51:28.463Z,19.55
2022-11-25T14:56:34.091Z,19.56
2022-11-25T15:01:39.130Z,19.57
2022-11-25T15:06:47.738Z,19.58
2022-11-25T15:12:03.985Z,19.57
2022-11-25T15:17:24.661Z,19.55
2022-11-25T15:22:27.935Z,19.54
2022-11-25T15:27:32.746Z,19.56
2022-11-25T15:32:38.193Z,19.61
2022-11-25T15:37:40.209Z,19.61
2022-11-25T15:42:42.565Z,19.60
2022-11-25T15:47:45.119Z,19.59
2022-11-25T15:52:51.254Z,19.57
2022-11-25T15:57:54.815Z,19.57
2022-11-25T16:02:58.920Z,19.58
2022-11-25T16:08:35.395Z,19.60
2022-11-25T16:13:39.871Z,19.61
2022-11-25T16:18:44.789Z,19.58
2022-11-25T16:23:52.032Z,19.56
2022-11-25T16:29:00.097Z,19.56
2022-11-25T16:34:16.474Z,19.59
2022-11-25T16:39:18.743Z,19.63
2022-11-25T16:44:22.915Z,19.62
2022-11-25T16:49:26.660Z,19.60
2022-11-25T16:54:28.965Z,19.59
2022-11-25T16:59:35.086Z,19.60
2022-11-25T17:04:37.446Z,19.62
2022-11-25T17:09:40.082Z,19.68
2022-11-25T17:14:44.716Z,19.66
2022-11-25T17:19:46.967Z,19.65
2022-11-25T17:24:49.666Z,19.63
2022-11-25T17:29:52.134Z,19.69
2022-11-25T17:34:54.122Z,19.71
2022-11-25T17:39:56.104Z,19.68
2022-11-25T17:44:58.827Z,19.68
2022-11-25T17:50:01.429Z,19.68
2022-11-25T17:55:03.788Z,19.67
2022-11-25T18:00:07.737Z,19.69
2022-11-25T18:05:16.100Z,19.67
2022-11-25T18:10:21.132Z,19.62
2022-11-25T18:15:34.196Z,19.58
2022-11-25T18:20:36.224Z,19.59
2022-11-25T18:25:40.524Z,19.55
2022-11-25T18:30:42.815Z,19.57
2022-11-25T18:35:45.906Z,19.59
2022-11-25T18:40:53.243Z,19.62
2022-11-25T18:45:56.182Z,19.62
2022-11-25T18:50:58.169Z,19.61
2022-11-25T18:56:00.191Z,19.56
2022-11-25T19:01:11.540Z,19.56
2022-11-25T19:06:16.937Z,19.56
2022-11-25T19:11:28.268Z,19.55
2022-11-25T19:16:30.703Z,19.51
2022-11-25T19:21:33.784Z,19.53
2022-11-25T19:26:42.759Z,19.53
2022-11-25T19:31:44.940Z,19.52
2022-11-25T19:36:46.879Z,19.46
2022-11-25T19:41:48.989Z,19.46
2022-11-25T19:52:17.369Z,19.45
2022-11-25T19:57:24.189Z,19.45
2022-11-25T20:02:26.809Z,19.49
2022-11-25T20:07:31.313Z,19.50
2022-11-25T20:12:33.736Z,19.52
2022-11-25T20:17:37.827Z,19.50
2022-11-25T20:22:44.453Z,19.49
2022-11-25T20:27:46.490Z,19.48
2022-11-25T20:32:48.707Z,19.53
2022-11-25T20:37:51.529Z,19.53
2022-11-25T20:42:53.660Z,19.49
2022-11-25T20:47:56.756Z,19.48
2022-11-25T20:52:58.806Z,19.49
2022-11-25T20:58:01.538Z,19.47
2022-11-25T21:03:03.599Z,19.51
2022-11-25T21:08:34.680Z,19.46
2022-11-25T21:13:36.770Z,19.42
2022-11-25T21:18:39.403Z,19.52
2022-11-25T21:23:41.635Z,19.51
2022-11-25T21:28:45.851Z,19.50
2022-11-25T21:33:48.580Z,19.47
2022-11-25T21:38:55.833Z,19.50
2022-11-25T21:43:58.077Z,19.50
2022-11-25T21:49:00.155Z,19.49
2022-11-25T21:54:02.124Z,19.50
2022-11-25T21:59:06.731Z,19.50
2022-11-25T22:04:14.954Z,19.51
2022-11-25T22:09:17.705Z,19.51
2022-11-25T22:14:29.136Z,19.48
2022-11-25T22:19:31.667Z,19.52
2022-11-25T22:24:34.126Z,19.54
2022-11-25T22:29:36.685Z,19.50
2022-11-25T22:34:38.901Z,19.50
2022-11-25T22:39:41.085Z,19.48
2022-11-25T22:44:46.176Z,19.49
2022-11-25T22:49:49.635Z,19.47
2022-11-25T22:54:52.281Z,19.51
2022-11-25T22:59:54.315Z,19.50
2022-11-25T23:04:57.068Z,19.48
2022-11-25T23:09:59.152Z,19.45
2022-11-25T23:15:01.325Z,19.45
2022-11-25T23:20:03.633Z,19.44
2022-11-25T23:25:09.783Z,19.41
2022-11-25T23:30:17.154Z,19.37
2022-11-25T23:35:36.020Z,19.32
2022-11-25T23:40:38.147Z,19.34
2022-11-25T23:45:54.677Z,19.33
2022-11-25T23:50:59.360Z,19.34
2022-11-25T23:56:01.505Z,19.36
